sensor_id;sensor_type;location;lat;lon;timestamp;P1;durP1;ratioP1;P2;durP2;ratioP2
21519;SDS011;10921;53.614;9.882;2023-11-21T00:01:04;74.47;;;52.53;;
21519;SDS011;10921;53.614;9.882;2023-11-21T00:03:31;66.47;;;49.08;;
21519;SDS011;10921;53.614;9.882;2023-11-21T00:05:58;63.67;;;47.30;;
21519;SDS011;10921;53.614;9.882;2023-11-21T00:08:24;65.47;;;49.60;;
21519;SDS011;10921;53.614;9.882;2023-11-21T00:10:51;62.15;;;48.70;;
21519;SDS011;10921;53.614;9.882;2023-11-21T00:13:18;64.97;;;47.28;;
21519;SDS011;10921;53.614;9.882;2023-11-21T00:15:44;62.03;;;47.72;;
21519;SDS011;10921;53.614;9.882;2023-11-21T00:18:11;62.22;;;48.03;;
21519;SDS011;10921;53.614;9.882;2023-11-21T00:20:38;68.13;;;47.80;;
21519;SDS011;10921;53.614;9.882;2023-11-21T00:23:04;64.78;;;48.15;;
21519;SDS011;10921;53.614;9.882;2023-11-21T00:25:31;55.92;;;45.75;;
21519;SDS011;10921;53.614;9.882;2023-11-21T00:27:58;55.17;;;47.47;;
21519;SDS011;10921;53.614;9.882;2023-11-21T00:30:24;61.88;;;46.35;;
21519;SDS011;10921;53.614;9.882;2023-11-21T00:32:51;64.43;;;48.90;;
21519;SDS011;10921;53.614;9.882;2023-11-21T00:35:18;61.97;;;47.20;;
21519;SDS011;10921;53.614;9.882;2023-11-21T00:37:44;58.97;;;47.28;;
21519;SDS011;10921;53.614;9.882;2023-11-21T00:40:11;66.05;;;48.70;;
21519;SDS011;10921;53.614;9.882;2023-11-21T00:42:38;70.68;;;47.90;;
21519;SDS011;10921;53.614;9.882;2023-11-21T00:45:06;66.20;;;48.08;;
21519;SDS011;10921;53.614;9.882;2023-11-21T00:47:33;68.95;;;48.58;;
21519;SDS011;10921;53.614;9.882;2023-11-21T00:49:59;61.20;;;45.70;;
21519;SDS011;10921;53.614;9.882;2023-11-21T00:52:26;68.05;;;48.70;;
21519;SDS011;10921;53.614;9.882;2023-11-21T00:54:53;71.05;;;49.03;;
21519;SDS011;10921;53.614;9.882;2023-11-21T00:57:19;62.53;;;48.05;;
21519;SDS011;10921;53.614;9.882;2023-11-21T00:59:46;70.88;;;47.88;;
21519;SDS011;10921;53.614;9.882;2023-11-21T01:02:12;63.08;;;48.88;;
21519;SDS011;10921;53.614;9.882;2023-11-21T01:04:39;71.53;;;49.83;;
21519;SDS011;10921;53.614;9.882;2023-11-21T01:07:05;62.55;;;47.22;;
21519;SDS011;10921;53.614;9.882;2023-11-21T01:09:32;68.30;;;48.42;;
21519;SDS011;10921;53.614;9.882;2023-11-21T01:11:59;63.35;;;48.05;;
21519;SDS011;10921;53.614;9.882;2023-11-21T01:14:26;70.40;;;49.97;;
21519;SDS011;10921;53.614;9.882;2023-11-21T01:16:53;66.40;;;47.58;;
21519;SDS011;10921;53.614;9.882;2023-11-21T01:19:20;80.43;;;49.92;;
21519;SDS011;10921;53.614;9.882;2023-11-21T01:21:47;66.50;;;50.40;;
21519;SDS011;10921;53.614;9.882;2023-11-21T01:24:14;69.53;;;50.03;;
21519;SDS011;10921;53.614;9.882;2023-11-21T01:26:40;75.38;;;51.00;;
21519;SDS011;10921;53.614;9.882;2023-11-21T01:29:07;74.43;;;51.63;;
21519;SDS011;10921;53.614;9.882;2023-11-21T01:31:33;62.42;;;48.22;;
21519;SDS011;10921;53.614;9.882;2023-11-21T01:34:00;65.60;;;47.80;;
21519;SDS011;10921;53.614;9.882;2023-11-21T01:36:30;69.25;;;48.22;;
21519;SDS011;10921;53.614;9.882;2023-11-21T01:39:01;61.50;;;48.38;;
21519;SDS011;10921;53.614;9.882;2023-11-21T01:41:34;65.70;;;46.97;;
21519;SDS011;10921;53.614;9.882;2023-11-21T01:44:01;57.13;;;45.08;;
21519;SDS011;10921;53.614;9.882;2023-11-21T01:46:28;55.97;;;43.83;;
21519;SDS011;10921;53.614;9.882;2023-11-21T01:48:55;66.05;;;44.95;;
21519;SDS011;10921;53.614;9.882;2023-11-21T01:51:22;55.35;;;45.15;;
21519;SDS011;10921;53.614;9.882;2023-11-21T01:53:48;51.42;;;42.85;;
21519;SDS011;10921;53.614;9.882;2023-11-21T01:56:16;61.70;;;45.13;;
21519;SDS011;10921;53.614;9.882;2023-11-21T01:58:42;55.70;;;44.20;;
21519;SDS011;10921;53.614;9.882;2023-11-21T02:01:09;57.47;;;44.25;;
21519;SDS011;10921;53.614;9.882;2023-11-21T02:03:36;52.50;;;43.30;;
21519;SDS011;10921;53.614;9.882;2023-11-21T02:06:03;47.33;;;41.40;;
21519;SDS011;10921;53.614;9.882;2023-11-21T02:08:31;51.58;;;42.65;;
21519;SDS011;10921;53.614;9.882;2023-11-21T02:10:58;48.50;;;41.45;;
21519;SDS011;10921;53.614;9.882;2023-11-21T02:13:24;45.95;;;39.72;;
21519;SDS011;10921;53.614;9.882;2023-11-21T02:15:51;49.47;;;41.35;;
21519;SDS011;10921;53.614;9.882;2023-11-21T02:18:19;42.90;;;38.25;;
21519;SDS011;10921;53.614;9.882;2023-11-21T02:20:45;43.00;;;37.15;;
21519;SDS011;10921;53.614;9.882;2023-11-21T02:23:13;40.33;;;36.15;;
21519;SDS011;10921;53.614;9.882;2023-11-21T02:25:40;42.50;;;36.65;;
21519;SDS011;10921;53.614;9.882;2023-11-21T02:28:09;42.45;;;36.75;;
21519;SDS011;10921;53.614;9.882;2023-11-21T02:30:39;38.90;;;34.60;;
21519;SDS011;10921;53.614;9.882;2023-11-21T02:33:05;38.17;;;34.58;;
21519;SDS011;10921;53.614;9.882;2023-11-21T02:35:33;38.88;;;34.78;;
21519;SDS011;10921;53.614;9.882;2023-11-21T02:38:01;39.92;;;35.95;;
21519;SDS011;10921;53.614;9.882;2023-11-21T02:40:28;38.20;;;34.25;;
21519;SDS011;10921;53.614;9.882;2023-11-21T02:42:56;39.05;;;35.05;;
21519;SDS011;10921;53.614;9.882;2023-11-21T02:45:25;38.97;;;35.20;;
21519;SDS011;10921;53.614;9.882;2023-11-21T02:47:52;36.47;;;33.00;;
21519;SDS011;10921;53.614;9.882;2023-11-21T02:50:24;37.67;;;34.17;;
21519;SDS011;10921;53.614;9.882;2023-11-21T02:52:50;38.10;;;34.22;;
21519;SDS011;10921;53.614;9.882;2023-11-21T02:55:18;39.63;;;35.58;;
21519;SDS011;10921;53.614;9.882;2023-11-21T02:57:44;37.20;;;33.80;;
21519;SDS011;10921;53.614;9.882;2023-11-21T03:00:11;37.00;;;33.22;;
21519;SDS011;10921;53.614;9.882;2023-11-21T03:02:39;37.92;;;34.10;;
21519;SDS011;10921;53.614;9.882;2023-11-21T03:05:06;38.95;;;35.05;;
21519;SDS011;10921;53.614;9.882;2023-11-21T03:07:36;38.40;;;34.60;;
21519;SDS011;10921;53.614;9.882;2023-11-21T03:10:03;38.20;;;34.28;;
21519;SDS011;10921;53.614;9.882;2023-11-21T03:12:30;37.45;;;33.50;;
21519;SDS011;10921;53.614;9.882;2023-11-21T03:14:57;37.28;;;32.88;;
21519;SDS011;10921;53.614;9.882;2023-11-21T03:17:23;38.22;;;34.33;;
21519;SDS011;10921;53.614;9.882;2023-11-21T03:19:51;38.55;;;34.65;;
21519;SDS011;10921;53.614;9.882;2023-11-21T03:22:18;37.33;;;33.63;;
21519;SDS011;10921;53.614;9.882;2023-11-21T03:24:45;37.90;;;34.17;;
21519;SDS011;10921;53.614;9.882;2023-11-21T03:27:12;38.97;;;35.13;;
21519;SDS011;10921;53.614;9.882;2023-11-21T03:29:38;38.78;;;34.67;;
21519;SDS011;10921;53.614;9.882;2023-11-21T03:32:05;39.03;;;34.78;;
21519;SDS011;10921;53.614;9.882;2023-11-21T03:34:33;38.35;;;34.33;;
21519;SDS011;10921;53.614;9.882;2023-11-21T03:36:59;40.30;;;36.15;;
21519;SDS011;10921;53.614;9.882;2023-11-21T03:39:26;39.03;;;35.20;;
21519;SDS011;10921;53.614;9.882;2023-11-21T03:41:52;41.17;;;35.20;;
21519;SDS011;10921;53.614;9.882;2023-11-21T03:44:19;39.25;;;35.13;;
21519;SDS011;10921;53.614;9.882;2023-11-21T03:46:45;40.03;;;35.58;;
21519;SDS011;10921;53.614;9.882;2023-11-21T03:49:12;40.45;;;36.03;;
21519;SDS011;10921;53.614;9.882;2023-11-21T03:51:38;42.72;;;36.63;;
21519;SDS011;10921;53.614;9.882;2023-11-21T03:54:05;40.30;;;35.90;;
21519;SDS011;10921;53.614;9.882;2023-11-21T03:56:31;39.95;;;35.63;;
21519;SDS011;10921;53.614;9.882;2023-11-21T03:58:58;39.85;;;35.22;;
21519;SDS011;10921;53.614;9.882;2023-11-21T04:01:24;40.97;;;35.65;;
21519;SDS011;10921;53.614;9.882;2023-11-21T04:03:51;40.67;;;36.47;;
21519;SDS011;10921;53.614;9.882;2023-11-21T04:06:18;44.92;;;37.85;;
21519;SDS011;10921;53.614;9.882;2023-11-21T04:08:44;41.60;;;37.22;;
21519;SDS011;10921;53.614;9.882;2023-11-21T04:11:12;42.83;;;36.85;;
21519;SDS011;10921;53.614;9.882;2023-11-21T04:13:39;39.88;;;35.55;;
21519;SDS011;10921;53.614;9.882;2023-11-21T04:16:06;44.45;;;36.03;;
21519;SDS011;10921;53.614;9.882;2023-11-21T04:18:37;40.83;;;36.42;;
21519;SDS011;10921;53.614;9.882;2023-11-21T04:21:07;40.05;;;35.75;;
21519;SDS011;10921;53.614;9.882;2023-11-21T04:23:34;40.83;;;36.55;;
21519;SDS011;10921;53.614;9.882;2023-11-21T04:26:01;42.53;;;36.28;;
21519;SDS011;10921;53.614;9.882;2023-11-21T04:28:28;44.10;;;37.50;;
21519;SDS011;10921;53.614;9.882;2023-11-21T04:30:55;47.65;;;36.83;;
21519;SDS011;10921;53.614;9.882;2023-11-21T04:33:21;43.08;;;36.45;;
21519;SDS011;10921;53.614;9.882;2023-11-21T04:35:48;42.72;;;36.75;;
21519;SDS011;10921;53.614;9.882;2023-11-21T04:38:15;40.50;;;36.15;;
21519;SDS011;10921;53.614;9.882;2023-11-21T04:40:41;41.22;;;36.72;;
21519;SDS011;10921;53.614;9.882;2023-11-21T04:43:08;44.30;;;35.97;;
21519;SDS011;10921;53.614;9.882;2023-11-21T04:45:34;40.53;;;36.38;;
21519;SDS011;10921;53.614;9.882;2023-11-21T04:48:01;41.38;;;36.47;;
21519;SDS011;10921;53.614;9.882;2023-11-21T04:50:27;40.92;;;36.08;;
21519;SDS011;10921;53.614;9.882;2023-11-21T04:52:54;40.00;;;35.80;;
21519;SDS011;10921;53.614;9.882;2023-11-21T04:55:20;41.35;;;37.05;;
21519;SDS011;10921;53.614;9.882;2023-11-21T04:57:47;39.83;;;35.53;;
21519;SDS011;10921;53.614;9.882;2023-11-21T05:00:14;40.40;;;36.05;;
21519;SDS011;10921;53.614;9.882;2023-11-21T05:02:42;39.63;;;35.45;;
21519;SDS011;10921;53.614;9.882;2023-11-21T05:05:10;40.47;;;36.03;;
21519;SDS011;10921;53.614;9.882;2023-11-21T05:07:37;39.30;;;34.58;;
21519;SDS011;10921;53.614;9.882;2023-11-21T05:10:05;40.03;;;35.83;;
21519;SDS011;10921;53.614;9.882;2023-11-21T05:12:39;40.78;;;35.50;;
21519;SDS011;10921;53.614;9.882;2023-11-21T05:15:07;38.58;;;34.38;;
21519;SDS011;10921;53.614;9.882;2023-11-21T05:17:38;39.33;;;35.05;;
21519;SDS011;10921;53.614;9.882;2023-11-21T05:20:09;38.22;;;34.00;;
21519;SDS011;10921;53.614;9.882;2023-11-21T05:22:36;38.40;;;34.40;;
21519;SDS011;10921;53.614;9.882;2023-11-21T05:25:03;39.20;;;35.22;;
21519;SDS011;10921;53.614;9.882;2023-11-21T05:27:30;38.08;;;34.13;;
21519;SDS011;10921;53.614;9.882;2023-11-21T05:30:03;41.33;;;34.95;;
21519;SDS011;10921;53.614;9.882;2023-11-21T05:32:38;39.80;;;35.47;;
21519;SDS011;10921;53.614;9.882;2023-11-21T05:35:05;42.13;;;34.88;;
21519;SDS011;10921;53.614;9.882;2023-11-21T05:37:38;37.90;;;33.97;;
21519;SDS011;10921;53.614;9.882;2023-11-21T05:40:07;39.50;;;34.00;;
21519;SDS011;10921;53.614;9.882;2023-11-21T05:42:35;37.92;;;34.00;;
21519;SDS011;10921;53.614;9.882;2023-11-21T05:45:02;39.83;;;35.25;;
21519;SDS011;10921;53.614;9.882;2023-11-21T05:47:36;39.53;;;34.45;;
21519;SDS011;10921;53.614;9.882;2023-11-21T05:50:04;37.95;;;33.95;;
21519;SDS011;10921;53.614;9.882;2023-11-21T05:52:31;38.95;;;35.15;;
21519;SDS011;10921;53.614;9.882;2023-11-21T05:55:01;39.40;;;35.10;;
21519;SDS011;10921;53.614;9.882;2023-11-21T05:57:27;40.40;;;35.25;;
21519;SDS011;10921;53.614;9.882;2023-11-21T05:59:54;36.40;;;32.65;;
21519;SDS011;10921;53.614;9.882;2023-11-21T06:02:21;38.20;;;33.75;;
21519;SDS011;10921;53.614;9.882;2023-11-21T06:04:47;38.78;;;34.38;;
21519;SDS011;10921;53.614;9.882;2023-11-21T06:07:14;38.30;;;34.33;;
21519;SDS011;10921;53.614;9.882;2023-11-21T06:09:40;36.63;;;32.83;;
21519;SDS011;10921;53.614;9.882;2023-11-21T06:12:07;38.67;;;33.88;;
21519;SDS011;10921;53.614;9.882;2023-11-21T06:14:33;37.90;;;33.63;;
21519;SDS011;10921;53.614;9.882;2023-11-21T06:17:01;38.47;;;34.38;;
21519;SDS011;10921;53.614;9.882;2023-11-21T06:19:28;37.50;;;33.53;;
21519;SDS011;10921;53.614;9.882;2023-11-21T06:21:54;36.88;;;33.15;;
21519;SDS011;10921;53.614;9.882;2023-11-21T06:24:21;38.33;;;34.17;;
21519;SDS011;10921;53.614;9.882;2023-11-21T06:26:48;36.25;;;32.33;;
21519;SDS011;10921;53.614;9.882;2023-11-21T06:29:14;35.15;;;31.25;;
21519;SDS011;10921;53.614;9.882;2023-11-21T06:31:41;35.33;;;31.63;;
21519;SDS011;10921;53.614;9.882;2023-11-21T06:34:07;37.97;;;32.83;;
21519;SDS011;10921;53.614;9.882;2023-11-21T06:36:36;37.05;;;33.08;;
21519;SDS011;10921;53.614;9.882;2023-11-21T06:39:02;36.85;;;33.15;;
21519;SDS011;10921;53.614;9.882;2023-11-21T06:41:29;39.35;;;35.22;;
21519;SDS011;10921;53.614;9.882;2023-11-21T06:43:55;42.97;;;33.50;;
21519;SDS011;10921;53.614;9.882;2023-11-21T06:46:25;36.55;;;32.72;;
21519;SDS011;10921;53.614;9.882;2023-11-21T06:48:52;37.00;;;30.98;;
21519;SDS011;10921;53.614;9.882;2023-11-21T06:51:18;35.67;;;31.02;;
21519;SDS011;10921;53.614;9.882;2023-11-21T06:53:45;35.78;;;32.03;;
21519;SDS011;10921;53.614;9.882;2023-11-21T06:56:15;35.95;;;32.10;;
21519;SDS011;10921;53.614;9.882;2023-11-21T06:58:45;35.20;;;31.35;;
21519;SDS011;10921;53.614;9.882;2023-11-21T07:01:13;34.97;;;31.10;;
21519;SDS011;10921;53.614;9.882;2023-11-21T07:03:40;34.35;;;29.55;;
21519;SDS011;10921;53.614;9.882;2023-11-21T07:06:08;34.15;;;30.48;;
21519;SDS011;10921;53.614;9.882;2023-11-21T07:08:34;39.13;;;30.17;;
21519;SDS011;10921;53.614;9.882;2023-11-21T07:11:01;37.70;;;29.83;;
21519;SDS011;10921;53.614;9.882;2023-11-21T07:13:29;31.17;;;27.83;;
21519;SDS011;10921;53.614;9.882;2023-11-21T07:15:57;33.25;;;29.23;;
21519;SDS011;10921;53.614;9.882;2023-11-21T07:18:25;35.60;;;28.85;;
21519;SDS011;10921;53.614;9.882;2023-11-21T07:20:52;33.53;;;29.42;;
21519;SDS011;10921;53.614;9.882;2023-11-21T07:23:18;40.05;;;29.98;;
21519;SDS011;10921;53.614;9.882;2023-11-21T07:25:45;31.85;;;27.98;;
21519;SDS011;10921;53.614;9.882;2023-11-21T07:28:11;32.05;;;28.55;;
21519;SDS011;10921;53.614;9.882;2023-11-21T07:30:38;33.72;;;28.33;;
21519;SDS011;10921;53.614;9.882;2023-11-21T07:33:04;30.95;;;27.08;;
21519;SDS011;10921;53.614;9.882;2023-11-21T07:35:30;30.33;;;27.10;;
21519;SDS011;10921;53.614;9.882;2023-11-21T07:37:57;30.70;;;27.40;;
21519;SDS011;10921;53.614;9.882;2023-11-21T07:40:24;30.10;;;26.80;;
21519;SDS011;10921;53.614;9.882;2023-11-21T07:42:51;31.13;;;27.13;;
21519;SDS011;10921;53.614;9.882;2023-11-21T07:45:17;29.95;;;25.52;;
21519;SDS011;10921;53.614;9.882;2023-11-21T07:47:43;29.15;;;25.23;;
21519;SDS011;10921;53.614;9.882;2023-11-21T07:50:10;31.98;;;25.48;;
21519;SDS011;10921;53.614;9.882;2023-11-21T07:52:37;28.67;;;25.58;;
21519;SDS011;10921;53.614;9.882;2023-11-21T07:55:04;31.67;;;25.92;;
21519;SDS011;10921;53.614;9.882;2023-11-21T07:57:30;31.27;;;25.88;;
21519;SDS011;10921;53.614;9.882;2023-11-21T07:59:57;32.20;;;26.25;;
21519;SDS011;10921;53.614;9.882;2023-11-21T08:02:23;29.40;;;26.10;;
21519;SDS011;10921;53.614;9.882;2023-11-21T08:04:50;28.85;;;25.48;;
21519;SDS011;10921;53.614;9.882;2023-11-21T08:07:17;29.20;;;26.05;;
21519;SDS011;10921;53.614;9.882;2023-11-21T08:09:44;29.85;;;25.85;;
21519;SDS011;10921;53.614;9.882;2023-11-21T08:12:10;30.27;;;24.73;;
21519;SDS011;10921;53.614;9.882;2023-11-21T08:14:37;28.90;;;24.77;;
21519;SDS011;10921;53.614;9.882;2023-11-21T08:17:10;29.08;;;24.27;;
21519;SDS011;10921;53.614;9.882;2023-11-21T08:19:37;29.33;;;25.40;;
21519;SDS011;10921;53.614;9.882;2023-11-21T08:22:03;28.98;;;25.30;;
21519;SDS011;10921;53.614;9.882;2023-11-21T08:24:30;27.85;;;24.45;;
21519;SDS011;10921;53.614;9.882;2023-11-21T08:26:57;27.70;;;24.77;;
21519;SDS011;10921;53.614;9.882;2023-11-21T08:29:24;31.75;;;24.83;;
21519;SDS011;10921;53.614;9.882;2023-11-21T08:31:51;31.33;;;23.90;;
21519;SDS011;10921;53.614;9.882;2023-11-21T08:34:17;27.17;;;23.27;;
21519;SDS011;10921;53.614;9.882;2023-11-21T08:36:44;27.05;;;24.23;;
21519;SDS011;10921;53.614;9.882;2023-11-21T08:39:11;29.55;;;22.75;;
21519;SDS011;10921;53.614;9.882;2023-11-21T08:41:39;25.52;;;22.23;;
21519;SDS011;10921;53.614;9.882;2023-11-21T08:44:06;27.67;;;21.48;;
21519;SDS011;10921;53.614;9.882;2023-11-21T08:46:33;26.27;;;22.45;;
21519;SDS011;10921;53.614;9.882;2023-11-21T08:49:03;22.60;;;20.27;;
21519;SDS011;10921;53.614;9.882;2023-11-21T08:51:30;24.00;;;21.38;;
21519;SDS011;10921;53.614;9.882;2023-11-21T08:53:56;26.73;;;20.98;;
21519;SDS011;10921;53.614;9.882;2023-11-21T08:56:26;28.10;;;21.27;;
21519;SDS011;10921;53.614;9.882;2023-11-21T08:58:53;23.15;;;20.65;;
21519;SDS011;10921;53.614;9.882;2023-11-21T09:01:19;25.65;;;20.23;;
21519;SDS011;10921;53.614;9.882;2023-11-21T09:03:47;21.58;;;19.33;;
21519;SDS011;10921;53.614;9.882;2023-11-21T09:06:16;21.98;;;18.95;;
21519;SDS011;10921;53.614;9.882;2023-11-21T09:08:44;21.02;;;18.40;;
21519;SDS011;10921;53.614;9.882;2023-11-21T09:11:10;18.85;;;17.08;;
21519;SDS011;10921;53.614;9.882;2023-11-21T09:13:37;17.27;;;15.60;;
21519;SDS011;10921;53.614;9.882;2023-11-21T09:16:04;16.80;;;15.27;;
21519;SDS011;10921;53.614;9.882;2023-11-21T09:18:31;16.70;;;15.15;;
21519;SDS011;10921;53.614;9.882;2023-11-21T09:20:58;16.45;;;15.07;;
21519;SDS011;10921;53.614;9.882;2023-11-21T09:23:25;18.15;;;16.23;;
21519;SDS011;10921;53.614;9.882;2023-11-21T09:25:51;18.25;;;16.15;;
21519;SDS011;10921;53.614;9.882;2023-11-21T09:28:22;18.77;;;16.88;;
21519;SDS011;10921;53.614;9.882;2023-11-21T09:30:49;16.80;;;15.35;;
21519;SDS011;10921;53.614;9.882;2023-11-21T09:33:16;18.08;;;16.50;;
21519;SDS011;10921;53.614;9.882;2023-11-21T09:35:43;16.52;;;15.13;;
21519;SDS011;10921;53.614;9.882;2023-11-21T09:38:10;17.88;;;16.17;;
21519;SDS011;10921;53.614;9.882;2023-11-21T09:40:37;17.27;;;15.57;;
21519;SDS011;10921;53.614;9.882;2023-11-21T09:43:05;16.27;;;14.65;;
21519;SDS011;10921;53.614;9.882;2023-11-21T09:45:35;16.75;;;15.25;;
21519;SDS011;10921;53.614;9.882;2023-11-21T09:48:02;17.23;;;15.77;;
21519;SDS011;10921;53.614;9.882;2023-11-21T09:50:29;17.13;;;15.52;;
21519;SDS011;10921;53.614;9.882;2023-11-21T09:55:43;17.35;;;15.85;;
21519;SDS011;10921;53.614;9.882;2023-11-21T09:58:11;16.92;;;15.40;;
21519;SDS011;10921;53.614;9.882;2023-11-21T10:00:39;16.23;;;14.82;;
21519;SDS011;10921;53.614;9.882;2023-11-21T10:03:07;17.05;;;15.55;;
21519;SDS011;10921;53.614;9.882;2023-11-21T10:05:35;17.20;;;15.70;;
21519;SDS011;10921;53.614;9.882;2023-11-21T10:08:04;16.00;;;14.60;;
21519;SDS011;10921;53.614;9.882;2023-11-21T10:10:34;16.58;;;14.85;;
21519;SDS011;10921;53.614;9.882;2023-11-21T10:13:02;15.63;;;14.23;;
21519;SDS011;10921;53.614;9.882;2023-11-21T10:15:34;16.70;;;15.20;;
21519;SDS011;10921;53.614;9.882;2023-11-21T10:18:02;14.75;;;13.55;;
21519;SDS011;10921;53.614;9.882;2023-11-21T10:20:30;15.40;;;14.10;;
21519;SDS011;10921;53.614;9.882;2023-11-21T10:22:56;14.95;;;13.75;;
21519;SDS011;10921;53.614;9.882;2023-11-21T10:25:23;14.48;;;13.38;;
21519;SDS011;10921;53.614;9.882;2023-11-21T10:27:49;15.18;;;13.75;;
21519;SDS011;10921;53.614;9.882;2023-11-21T10:30:24;15.10;;;13.55;;
21519;SDS011;10921;53.614;9.882;2023-11-21T10:32:58;14.13;;;12.93;;
21519;SDS011;10921;53.614;9.882;2023-11-21T10:35:26;14.38;;;13.18;;
21519;SDS011;10921;53.614;9.882;2023-11-21T10:38:05;14.75;;;13.50;;
21519;SDS011;10921;53.614;9.882;2023-11-21T10:40:32;14.73;;;13.52;;
21519;SDS011;10921;53.614;9.882;2023-11-21T10:43:08;14.85;;;13.20;;
21519;SDS011;10921;53.614;9.882;2023-11-21T10:45:39;13.80;;;12.55;;
21519;SDS011;10921;53.614;9.882;2023-11-21T10:48:06;13.48;;;12.40;;
21519;SDS011;10921;53.614;9.882;2023-11-21T10:50:43;13.40;;;12.20;;
21519;SDS011;10921;53.614;9.882;2023-11-21T10:53:12;13.80;;;12.50;;
21519;SDS011;10921;53.614;9.882;2023-11-21T10:55:39;13.35;;;12.18;;
21519;SDS011;10921;53.614;9.882;2023-11-21T10:58:06;13.25;;;12.13;;
21519;SDS011;10921;53.614;9.882;2023-11-21T11:00:33;12.82;;;11.63;;
21519;SDS011;10921;53.614;9.882;2023-11-21T11:03:00;13.00;;;11.73;;
21519;SDS011;10921;53.614;9.882;2023-11-21T11:05:28;13.25;;;12.15;;
21519;SDS011;10921;53.614;9.882;2023-11-21T11:08:00;13.10;;;12.00;;
21519;SDS011;10921;53.614;9.882;2023-11-21T11:10:31;13.07;;;12.07;;
21519;SDS011;10921;53.614;9.882;2023-11-21T11:12:58;13.80;;;12.52;;
21519;SDS011;10921;53.614;9.882;2023-11-21T11:15:25;13.50;;;12.32;;
21519;SDS011;10921;53.614;9.882;2023-11-21T11:17:53;14.18;;;12.93;;
21519;SDS011;10921;53.614;9.882;2023-11-21T11:20:34;16.48;;;15.07;;
21519;SDS011;10921;53.614;9.882;2023-11-21T11:26:12;16.20;;;14.90;;
21519;SDS011;10921;53.614;9.882;2023-11-21T11:31:58;16.40;;;15.00;;
21519;SDS011;10921;53.614;9.882;2023-11-21T11:34:36;16.55;;;15.05;;
21519;SDS011;10921;53.614;9.882;2023-11-21T11:37:11;17.33;;;14.38;;
21519;SDS011;10921;53.614;9.882;2023-11-21T11:39:40;16.75;;;15.25;;
21519;SDS011;10921;53.614;9.882;2023-11-21T11:42:08;15.60;;;14.15;;
21519;SDS011;10921;53.614;9.882;2023-11-21T11:50:01;16.58;;;15.27;;
21519;SDS011;10921;53.614;9.882;2023-11-21T11:55:03;16.75;;;15.35;;
21519;SDS011;10921;53.614;9.882;2023-11-21T11:57:30;18.88;;;15.48;;
21519;SDS011;10921;53.614;9.882;2023-11-21T12:02:45;16.58;;;15.13;;
21519;SDS011;10921;53.614;9.882;2023-11-21T12:05:16;15.93;;;14.63;;
21519;SDS011;10921;53.614;9.882;2023-11-21T12:07:54;16.20;;;14.80;;
21519;SDS011;10921;53.614;9.882;2023-11-21T12:10:27;17.13;;;15.60;;
21519;SDS011;10921;53.614;9.882;2023-11-21T12:12:55;16.05;;;14.75;;
21519;SDS011;10921;53.614;9.882;2023-11-21T12:15:24;16.83;;;15.40;;
21519;SDS011;10921;53.614;9.882;2023-11-21T12:17:52;17.15;;;15.73;;
21519;SDS011;10921;53.614;9.882;2023-11-21T12:20:19;16.60;;;15.25;;
21519;SDS011;10921;53.614;9.882;2023-11-21T12:22:48;16.17;;;14.98;;
21519;SDS011;10921;53.614;9.882;2023-11-21T12:25:19;16.75;;;15.15;;
21519;SDS011;10921;53.614;9.882;2023-11-21T12:27:51;17.00;;;15.25;;
21519;SDS011;10921;53.614;9.882;2023-11-21T12:30:19;17.92;;;16.10;;
21519;SDS011;10921;53.614;9.882;2023-11-21T12:32:51;17.50;;;16.02;;
21519;SDS011;10921;53.614;9.882;2023-11-21T12:35:19;17.02;;;15.77;;
21519;SDS011;10921;53.614;9.882;2023-11-21T12:37:48;16.45;;;15.20;;
21519;SDS011;10921;53.614;9.882;2023-11-21T12:40:15;18.40;;;16.88;;
21519;SDS011;10921;53.614;9.882;2023-11-21T12:42:46;19.42;;;17.55;;
21519;SDS011;10921;53.614;9.882;2023-11-21T12:45:18;18.42;;;17.13;;
21519;SDS011;10921;53.614;9.882;2023-11-21T12:50:20;19.08;;;17.48;;
21519;SDS011;10921;53.614;9.882;2023-11-21T12:52:58;19.40;;;17.83;;
21519;SDS011;10921;53.614;9.882;2023-11-21T12:55:32;19.17;;;17.73;;
21519;SDS011;10921;53.614;9.882;2023-11-21T12:58:00;20.25;;;18.20;;
21519;SDS011;10921;53.614;9.882;2023-11-21T13:00:39;18.95;;;17.35;;
21519;SDS011;10921;53.614;9.882;2023-11-21T13:03:10;18.50;;;17.00;;
21519;SDS011;10921;53.614;9.882;2023-11-21T13:05:39;18.55;;;17.08;;
21519;SDS011;10921;53.614;9.882;2023-11-21T13:08:12;18.25;;;16.67;;
21519;SDS011;10921;53.614;9.882;2023-11-21T13:10:40;18.40;;;17.00;;
21519;SDS011;10921;53.614;9.882;2023-11-21T13:13:10;17.80;;;16.45;;
21519;SDS011;10921;53.614;9.882;2023-11-21T13:15:48;18.35;;;16.63;;
21519;SDS011;10921;53.614;9.882;2023-11-21T13:18:25;18.15;;;16.33;;
21519;SDS011;10921;53.614;9.882;2023-11-21T13:20:57;18.35;;;16.75;;
21519;SDS011;10921;53.614;9.882;2023-11-21T13:23:25;18.48;;;16.98;;
21519;SDS011;10921;53.614;9.882;2023-11-21T13:25:53;18.85;;;17.15;;
21519;SDS011;10921;53.614;9.882;2023-11-21T13:28:30;18.00;;;16.27;;
21519;SDS011;10921;53.614;9.882;2023-11-21T13:31:01;20.67;;;18.98;;
21519;SDS011;10921;53.614;9.882;2023-11-21T13:33:36;20.27;;;18.48;;
21519;SDS011;10921;53.614;9.882;2023-11-21T13:36:07;20.25;;;18.48;;
21519;SDS011;10921;53.614;9.882;2023-11-21T13:38:35;18.70;;;17.10;;
21519;SDS011;10921;53.614;9.882;2023-11-21T13:41:03;19.88;;;17.85;;
21519;SDS011;10921;53.614;9.882;2023-11-21T13:43:33;19.50;;;18.00;;
21519;SDS011;10921;53.614;9.882;2023-11-21T13:46:00;19.63;;;18.02;;
21519;SDS011;10921;53.614;9.882;2023-11-21T13:48:39;19.27;;;17.58;;
21519;SDS011;10921;53.614;9.882;2023-11-21T13:53:46;18.67;;;17.08;;
21519;SDS011;10921;53.614;9.882;2023-11-21T13:56:16;18.75;;;17.25;;
21519;SDS011;10921;53.614;9.882;2023-11-21T13:58:50;18.77;;;17.27;;
21519;SDS011;10921;53.614;9.882;2023-11-21T14:01:18;18.90;;;17.38;;
21519;SDS011;10921;53.614;9.882;2023-11-21T14:04:05;18.08;;;16.48;;
21519;SDS011;10921;53.614;9.882;2023-11-21T14:06:46;18.65;;;17.15;;
21519;SDS011;10921;53.614;9.882;2023-11-21T14:09:19;19.33;;;17.73;;
21519;SDS011;10921;53.614;9.882;2023-11-21T14:11:59;19.10;;;17.45;;
21519;SDS011;10921;53.614;9.882;2023-11-21T14:14:27;19.60;;;17.77;;
21519;SDS011;10921;53.614;9.882;2023-11-21T14:16:57;19.17;;;17.50;;
21519;SDS011;10921;53.614;9.882;2023-11-21T14:19:25;20.30;;;18.23;;
21519;SDS011;10921;53.614;9.882;2023-11-21T14:21:57;19.40;;;17.70;;
21519;SDS011;10921;53.614;9.882;2023-11-21T14:24:24;19.80;;;17.98;;
21519;SDS011;10921;53.614;9.882;2023-11-21T14:26:51;19.10;;;17.50;;
21519;SDS011;10921;53.614;9.882;2023-11-21T14:29:19;19.67;;;17.85;;
21519;SDS011;10921;53.614;9.882;2023-11-21T14:31:46;18.55;;;16.77;;
21519;SDS011;10921;53.614;9.882;2023-11-21T14:34:14;18.77;;;17.08;;
21519;SDS011;10921;53.614;9.882;2023-11-21T14:36:45;17.83;;;16.33;;
21519;SDS011;10921;53.614;9.882;2023-11-21T14:39:12;18.30;;;16.80;;
21519;SDS011;10921;53.614;9.882;2023-11-21T14:41:53;19.10;;;17.38;;
21519;SDS011;10921;53.614;9.882;2023-11-21T14:44:22;18.25;;;16.67;;
21519;SDS011;10921;53.614;9.882;2023-11-21T14:46:59;18.20;;;16.80;;
21519;SDS011;10921;53.614;9.882;2023-11-21T14:49:26;18.25;;;16.65;;
21519;SDS011;10921;53.614;9.882;2023-11-21T14:51:59;18.63;;;17.13;;